CHTM7: Spring River at Carthage, MO

                                SHEF ID:       CHTM7     Spring River at Carthage, MO
STATION TYPE:

PRECIP STAGE RIV-FLOW
in ft cfs
Ccp-Rev Ccp-Rev Ccp-Rev
(America/Chicago)
04/25 00:00 0.00 4.49 933
04/25 01:00 0.00 4.49 933
04/25 02:00 0.00 4.48 925
04/25 03:00 0.00 4.47 918
04/25 04:00 0.00 4.47 918
04/25 05:00 0.00 4.45 903
04/25 06:00 0.00 4.43 889
04/25 07:00 0.00 4.42 882
04/25 08:00 0.00 4.41 875
04/25 09:00 0.00 4.40 868
04/25 10:00 0.00 4.37 846
04/25 11:00 0.00 4.38 853
04/25 12:00 0.00 4.36 839
04/25 13:00 0.00 4.36 839
04/25 14:00 0.00 4.36 839
04/25 15:00 0.00 4.33 817
04/25 16:00 0.00 4.33 817
04/25 17:00 0.00 4.32 810
04/25 18:00 0.00 4.30 796
04/25 19:00 0.00 4.29 789
04/25 20:00 0.00 4.29 789
04/25 21:00 0.00 4.28 782
04/25 22:00 ---- 4.27 ----
04/25 23:00 ---- ---- ----
Data processed at Sun 26Apr2026 03:52 GMT

NOTICE: If you are parsing this page

Please convert to using our Data API. Starting early 2026 we will be migrating to: https://water.usace.army.mil with modern pages rendered in JavaScript. When this migration completes you will no longer be able to scrape this page! CWMSDataAPI (CDA)

Timeseries IDs (TSIDs)

TSIDs used from left to right in the data table
CART.Precip-Inc.Total.1Hour.1Hour.Ccp-Rev
CART.Stage.Inst.1Hour.0.Ccp-Rev
CART.Flow.Inst.1Hour.0.Ccp-Rev

                            

All information presented herein is the property of the government of the United States of America and may be revised or deleted at any time without prior notice. Dissemination of this information without the expressed written consent of the Public Affairs Office, Tulsa District U.S. Army Corps of Engineers is strictly prohibited. These data are gathered electronically and, as presented, have NOT undergone any form of quality control. These data are NOT guaranteed to be valid or correct.